< Typhoon 200722 2007 Season Typhoon 200724 >
Typhoon 200723 (MITAG)
General InformationTrack Information on Google MapsDetailed Wind InformationAccess Analytics MapList of All Images || NewsDisaster Info.WeblogTrackbackTyphoon FrontResourceGoogle EarthGE AnimationAtom FeedGeoJSON
Detalied Best Track (Time Zone = UTC)
Year Month Day Hour Lat. Long. Pressure (hPa) Wind (kt) Class Image Chart
2007 11 19 18 10.0 140.0 1004 0 2 Image Chart
2007 11 20 00 11.9 138.3 1004 0 2 Image Chart
2007 11 20 06 12.6 137.2 1002 0 2 Image Chart
2007 11 20 12 13.2 136.2 1000 35 3 Image Chart
2007 11 20 18 13.5 134.8 1000 35 3 Image Chart
2007 11 21 00 13.8 133.6 996 40 3 Image Chart
2007 11 21 06 14.1 132.3 992 45 3 Image Chart
2007 11 21 12 14.3 131.3 985 50 4 Image Chart
2007 11 21 18 14.4 130.3 980 55 4 Image Chart
2007 11 22 00 14.3 129.4 975 65 5 Image Chart
2007 11 22 06 14.2 128.6 960 75 5 Image Chart
2007 11 22 12 14.0 127.8 955 80 5 Image Chart
2007 11 22 18 13.8 127.2 955 80 5 Image Chart
2007 11 23 00 13.7 127.2 955 80 5 Image Chart
2007 11 23 06 13.7 127.0 960 75 5 Image Chart
2007 11 23 12 14.0 126.7 960 75 5 Image Chart
2007 11 23 18 14.1 126.5 960 75 5 Image Chart
2007 11 24 00 14.3 126.2 960 75 5 Image Chart
2007 11 24 06 14.5 125.9 960 75 5 Image Chart
2007 11 24 12 14.8 125.5 965 75 5 Image Chart
2007 11 24 18 15.1 125.2 965 70 5 Image Chart
2007 11 25 00 15.5 124.5 970 70 5 Image Chart
2007 11 25 06 16.4 123.9 970 70 5 Image Chart
2007 11 25 12 16.9 122.9 970 70 5 Image Chart
2007 11 25 18 17.3 121.5 975 65 5 Image Chart
2007 11 26 00 18.3 121.0 980 60 4 Image Chart
2007 11 26 06 19.0 120.7 985 55 4 Image Chart
2007 11 26 12 19.5 120.7 985 50 4 Image Chart
2007 11 26 18 20.0 121.1 990 45 3 Image Chart
2007 11 27 00 20.1 121.5 992 40 3 Image Chart
2007 11 27 06 20.5 122.8 994 35 3 Image Chart
2007 11 27 12 20.6 124.0 998 0 2 Image Chart
Japan Meteorological Agency Best Track Data | Correction Date : 2007-12-25
< Typhoon 200722 2007 Season Typhoon 200724 >

Help